sensor_id;sensor_type;location;lat;lon;timestamp;temperature;humidity
69731;SHT31;56996;48.138;11.538;2023-05-10T00:00:08;15.44;74.91
69731;SHT31;56996;48.138;11.538;2023-05-10T00:02:38;15.43;75.08
69731;SHT31;56996;48.138;11.538;2023-05-10T00:05:06;15.40;74.92
69731;SHT31;56996;48.138;11.538;2023-05-10T00:07:33;15.35;74.91
69731;SHT31;56996;48.138;11.538;2023-05-10T00:10:00;15.34;75.28
69731;SHT31;56996;48.138;11.538;2023-05-10T00:12:27;15.35;75.37
69731;SHT31;56996;48.138;11.538;2023-05-10T00:14:53;15.36;75.38
69731;SHT31;56996;48.138;11.538;2023-05-10T00:17:20;15.33;75.38
69731;SHT31;56996;48.138;11.538;2023-05-10T00:19:47;15.36;75.48
69731;SHT31;56996;48.138;11.538;2023-05-10T00:22:14;15.36;75.56
69731;SHT31;56996;48.138;11.538;2023-05-10T00:24:40;15.39;75.69
69731;SHT31;56996;48.138;11.538;2023-05-10T00:27:07;15.43;75.53
69731;SHT31;56996;48.138;11.538;2023-05-10T00:29:34;15.44;75.19
69731;SHT31;56996;48.138;11.538;2023-05-10T00:32:00;15.41;74.98
69731;SHT31;56996;48.138;11.538;2023-05-10T00:34:27;15.33;75.18
69731;SHT31;56996;48.138;11.538;2023-05-10T00:36:54;15.32;75.24
69731;SHT31;56996;48.138;11.538;2023-05-10T00:39:21;15.29;75.38
69731;SHT31;56996;48.138;11.538;2023-05-10T00:41:48;15.31;75.22
69731;SHT31;56996;48.138;11.538;2023-05-10T00:44:15;15.32;75.28
69731;SHT31;56996;48.138;11.538;2023-05-10T00:46:43;15.34;75.22
69731;SHT31;56996;48.138;11.538;2023-05-10T00:49:12;15.36;75.39
69731;SHT31;56996;48.138;11.538;2023-05-10T00:51:39;15.32;75.41
69731;SHT31;56996;48.138;11.538;2023-05-10T00:54:05;15.29;75.75
69731;SHT31;56996;48.138;11.538;2023-05-10T00:56:32;15.27;75.58
69731;SHT31;56996;48.138;11.538;2023-05-10T00:59:00;15.26;75.86
69731;SHT31;56996;48.138;11.538;2023-05-10T01:01:27;15.23;75.68
69731;SHT31;56996;48.138;11.538;2023-05-10T01:03:55;15.15;75.93
69731;SHT31;56996;48.138;11.538;2023-05-10T01:06:22;15.10;75.95
69731;SHT31;56996;48.138;11.538;2023-05-10T01:08:48;15.11;76.20
69731;SHT31;56996;48.138;11.538;2023-05-10T01:11:16;15.04;76.03
69731;SHT31;56996;48.138;11.538;2023-05-10T01:13:43;14.98;76.10
69731;SHT31;56996;48.138;11.538;2023-05-10T01:16:18;14.95;76.02
69731;SHT31;56996;48.138;11.538;2023-05-10T01:18:47;14.94;75.94
69731;SHT31;56996;48.138;11.538;2023-05-10T01:29:50;14.89;75.91
69731;SHT31;56996;48.138;11.538;2023-05-10T01:32:56;14.86;76.02
69731;SHT31;56996;48.138;11.538;2023-05-10T01:35:41;14.86;76.00
69731;SHT31;56996;48.138;11.538;2023-05-10T01:38:29;14.86;75.91
69731;SHT31;56996;48.138;11.538;2023-05-10T01:43:57;14.83;76.03
69731;SHT31;56996;48.138;11.538;2023-05-10T01:46:46;14.81;76.25
69731;SHT31;56996;48.138;11.538;2023-05-10T01:49:26;14.79;76.13
69731;SHT31;56996;48.138;11.538;2023-05-10T01:52:02;14.77;76.29
69731;SHT31;56996;48.138;11.538;2023-05-10T01:54:36;14.81;76.61
69731;SHT31;56996;48.138;11.538;2023-05-10T01:57:09;14.84;76.84
69731;SHT31;56996;48.138;11.538;2023-05-10T01:59:40;14.87;76.83
69731;SHT31;56996;48.138;11.538;2023-05-10T02:02:11;14.89;76.77
69731;SHT31;56996;48.138;11.538;2023-05-10T02:04:41;14.91;76.78
69731;SHT31;56996;48.138;11.538;2023-05-10T02:07:09;14.92;76.55
69731;SHT31;56996;48.138;11.538;2023-05-10T02:09:37;14.91;76.51
69731;SHT31;56996;48.138;11.538;2023-05-10T02:12:05;14.88;76.40
69731;SHT31;56996;48.138;11.538;2023-05-10T02:14:34;14.89;76.55
69731;SHT31;56996;48.138;11.538;2023-05-10T02:17:03;14.90;76.61
69731;SHT31;56996;48.138;11.538;2023-05-10T02:19:32;14.93;76.59
69731;SHT31;56996;48.138;11.538;2023-05-10T02:22:00;14.93;76.53
69731;SHT31;56996;48.138;11.538;2023-05-10T02:24:28;14.90;76.50
69731;SHT31;56996;48.138;11.538;2023-05-10T02:26:58;14.87;76.58
69731;SHT31;56996;48.138;11.538;2023-05-10T02:29:26;14.88;76.63
69731;SHT31;56996;48.138;11.538;2023-05-10T02:31:54;14.86;76.82
69731;SHT31;56996;48.138;11.538;2023-05-10T02:34:25;14.87;76.65
69731;SHT31;56996;48.138;11.538;2023-05-10T02:36:53;14.86;76.30
69731;SHT31;56996;48.138;11.538;2023-05-10T02:39:22;14.84;76.36
69731;SHT31;56996;48.138;11.538;2023-05-10T02:41:50;14.80;76.29
69731;SHT31;56996;48.138;11.538;2023-05-10T02:44:19;14.75;76.63
69731;SHT31;56996;48.138;11.538;2023-05-10T02:46:48;14.76;76.75
69731;SHT31;56996;48.138;11.538;2023-05-10T02:49:15;14.78;76.75
69731;SHT31;56996;48.138;11.538;2023-05-10T02:51:44;14.74;76.86
69731;SHT31;56996;48.138;11.538;2023-05-10T02:54:18;14.73;77.02
69731;SHT31;56996;48.138;11.538;2023-05-10T02:56:47;14.71;76.99
69731;SHT31;56996;48.138;11.538;2023-05-10T02:59:28;14.72;77.13
69731;SHT31;56996;48.138;11.538;2023-05-10T03:01:54;14.72;77.33
69731;SHT31;56996;48.138;11.538;2023-05-10T03:04:21;14.71;77.21
69731;SHT31;56996;48.138;11.538;2023-05-10T03:06:49;14.70;77.20
69731;SHT31;56996;48.138;11.538;2023-05-10T03:09:16;14.73;77.37
69731;SHT31;56996;48.138;11.538;2023-05-10T03:17:19;14.57;77.00
69731;SHT31;56996;48.138;11.538;2023-05-10T03:20:11;14.53;77.06
69731;SHT31;56996;48.138;11.538;2023-05-10T03:22:47;14.51;77.19
69731;SHT31;56996;48.138;11.538;2023-05-10T03:25:19;14.49;77.34
69731;SHT31;56996;48.138;11.538;2023-05-10T03:27:49;14.48;77.49
69731;SHT31;56996;48.138;11.538;2023-05-10T03:30:18;14.47;77.66
69731;SHT31;56996;48.138;11.538;2023-05-10T03:32:45;14.47;77.82
69731;SHT31;56996;48.138;11.538;2023-05-10T03:35:15;14.46;77.73
69731;SHT31;56996;48.138;11.538;2023-05-10T03:37:42;14.44;77.92
69731;SHT31;56996;48.138;11.538;2023-05-10T03:40:09;14.48;78.07
69731;SHT31;56996;48.138;11.538;2023-05-10T03:42:37;14.46;78.12
69731;SHT31;56996;48.138;11.538;2023-05-10T03:45:04;14.45;78.17
69731;SHT31;56996;48.138;11.538;2023-05-10T03:47:33;14.49;78.31
69731;SHT31;56996;48.138;11.538;2023-05-10T03:50:00;14.53;78.19
69731;SHT31;56996;48.138;11.538;2023-05-10T03:52:29;14.52;78.30
69731;SHT31;56996;48.138;11.538;2023-05-10T03:54:56;14.54;78.26
69731;SHT31;56996;48.138;11.538;2023-05-10T03:57:23;14.59;78.32
69731;SHT31;56996;48.138;11.538;2023-05-10T03:59:50;14.58;78.11
69731;SHT31;56996;48.138;11.538;2023-05-10T04:02:16;14.54;78.19
69731;SHT31;56996;48.138;11.538;2023-05-10T04:04:43;14.54;78.27
69731;SHT31;56996;48.138;11.538;2023-05-10T04:07:10;14.53;78.22
69731;SHT31;56996;48.138;11.538;2023-05-10T04:09:37;14.54;78.18
69731;SHT31;56996;48.138;11.538;2023-05-10T04:12:03;14.58;78.04
69731;SHT31;56996;48.138;11.538;2023-05-10T04:14:30;14.59;77.97
69731;SHT31;56996;48.138;11.538;2023-05-10T04:16:57;14.61;77.99
69731;SHT31;56996;48.138;11.538;2023-05-10T04:19:28;14.66;77.98
69731;SHT31;56996;48.138;11.538;2023-05-10T04:21:58;14.69;77.93
69731;SHT31;56996;48.138;11.538;2023-05-10T04:24:25;14.67;77.98
69731;SHT31;56996;48.138;11.538;2023-05-10T04:26:51;14.70;77.85
69731;SHT31;56996;48.138;11.538;2023-05-10T04:29:18;14.71;77.83
69731;SHT31;56996;48.138;11.538;2023-05-10T04:31:45;14.70;77.80
69731;SHT31;56996;48.138;11.538;2023-05-10T04:34:11;14.66;77.91
69731;SHT31;56996;48.138;11.538;2023-05-10T04:36:38;14.71;77.93
69731;SHT31;56996;48.138;11.538;2023-05-10T04:39:05;14.73;77.82
69731;SHT31;56996;48.138;11.538;2023-05-10T04:41:31;14.77;77.87
69731;SHT31;56996;48.138;11.538;2023-05-10T04:43:58;14.78;77.88
69731;SHT31;56996;48.138;11.538;2023-05-10T04:46:25;14.75;77.70
69731;SHT31;56996;48.138;11.538;2023-05-10T04:48:51;14.67;77.69
69731;SHT31;56996;48.138;11.538;2023-05-10T04:51:18;14.58;77.83
69731;SHT31;56996;48.138;11.538;2023-05-10T04:53:45;14.53;77.67
69731;SHT31;56996;48.138;11.538;2023-05-10T04:56:30;14.50;77.65
69731;SHT31;56996;48.138;11.538;2023-05-10T04:58:57;14.46;77.69
69731;SHT31;56996;48.138;11.538;2023-05-10T05:01:24;14.44;77.55
69731;SHT31;56996;48.138;11.538;2023-05-10T05:03:50;14.43;77.40
69731;SHT31;56996;48.138;11.538;2023-05-10T05:06:19;14.43;77.39
69731;SHT31;56996;48.138;11.538;2023-05-10T05:08:47;14.44;77.49
69731;SHT31;56996;48.138;11.538;2023-05-10T05:11:16;14.47;77.47
69731;SHT31;56996;48.138;11.538;2023-05-10T05:13:43;14.45;77.69
69731;SHT31;56996;48.138;11.538;2023-05-10T05:16:10;14.45;77.69
69731;SHT31;56996;48.138;11.538;2023-05-10T05:18:38;14.50;77.84
69731;SHT31;56996;48.138;11.538;2023-05-10T05:21:17;14.46;78.13
69731;SHT31;56996;48.138;11.538;2023-05-10T05:23:46;14.42;77.97
69731;SHT31;56996;48.138;11.538;2023-05-10T05:26:12;14.42;77.92
69731;SHT31;56996;48.138;11.538;2023-05-10T05:28:39;14.47;77.74
69731;SHT31;56996;48.138;11.538;2023-05-10T05:31:06;14.43;77.78
69731;SHT31;56996;48.138;11.538;2023-05-10T05:33:34;14.34;77.93
69731;SHT31;56996;48.138;11.538;2023-05-10T05:36:01;14.28;78.26
69731;SHT31;56996;48.138;11.538;2023-05-10T05:38:30;14.22;78.66
69731;SHT31;56996;48.138;11.538;2023-05-10T05:40:56;14.15;79.00
69731;SHT31;56996;48.138;11.538;2023-05-10T05:43:23;14.09;79.22
69731;SHT31;56996;48.138;11.538;2023-05-10T05:45:53;14.04;79.50
69731;SHT31;56996;48.138;11.538;2023-05-10T05:48:21;14.00;79.67
69731;SHT31;56996;48.138;11.538;2023-05-10T05:50:47;13.95;78.94
69731;SHT31;56996;48.138;11.538;2023-05-10T05:53:14;13.92;78.46
69731;SHT31;56996;48.138;11.538;2023-05-10T05:55:50;14.00;78.43
69731;SHT31;56996;48.138;11.538;2023-05-10T05:58:21;14.13;78.33
69731;SHT31;56996;48.138;11.538;2023-05-10T06:00:48;14.22;78.09
69731;SHT31;56996;48.138;11.538;2023-05-10T06:03:15;14.26;77.67
69731;SHT31;56996;48.138;11.538;2023-05-10T06:05:43;14.34;77.66
69731;SHT31;56996;48.138;11.538;2023-05-10T06:08:10;14.36;77.53
69731;SHT31;56996;48.138;11.538;2023-05-10T06:10:36;14.38;77.55
69731;SHT31;56996;48.138;11.538;2023-05-10T06:13:03;14.42;77.46
69731;SHT31;56996;48.138;11.538;2023-05-10T06:15:30;14.50;77.67
69731;SHT31;56996;48.138;11.538;2023-05-10T06:17:57;14.56;77.73
69731;SHT31;56996;48.138;11.538;2023-05-10T06:20:23;14.60;77.47
69731;SHT31;56996;48.138;11.538;2023-05-10T06:22:50;14.68;77.40
69731;SHT31;56996;48.138;11.538;2023-05-10T06:25:17;14.75;77.18
69731;SHT31;56996;48.138;11.538;2023-05-10T06:27:46;14.75;76.86
69731;SHT31;56996;48.138;11.538;2023-05-10T06:30:19;14.79;76.90
69731;SHT31;56996;48.138;11.538;2023-05-10T06:32:46;14.74;76.70
69731;SHT31;56996;48.138;11.538;2023-05-10T06:35:13;14.68;76.82
69731;SHT31;56996;48.138;11.538;2023-05-10T06:37:40;14.66;76.93
69731;SHT31;56996;48.138;11.538;2023-05-10T06:40:07;14.65;76.81
69731;SHT31;56996;48.138;11.538;2023-05-10T06:42:35;14.69;76.88
69731;SHT31;56996;48.138;11.538;2023-05-10T06:45:02;14.72;76.68
69731;SHT31;56996;48.138;11.538;2023-05-10T06:47:28;14.73;76.62
69731;SHT31;56996;48.138;11.538;2023-05-10T06:49:55;14.73;76.61
69731;SHT31;56996;48.138;11.538;2023-05-10T06:52:22;14.84;76.61
69731;SHT31;56996;48.138;11.538;2023-05-10T06:54:49;14.94;76.39
69731;SHT31;56996;48.138;11.538;2023-05-10T06:57:16;14.94;76.06
69731;SHT31;56996;48.138;11.538;2023-05-10T06:59:57;15.02;75.87
69731;SHT31;56996;48.138;11.538;2023-05-10T07:02:26;15.03;75.94
69731;SHT31;56996;48.138;11.538;2023-05-10T07:04:53;15.14;75.69
69731;SHT31;56996;48.138;11.538;2023-05-10T07:07:20;15.30;75.53
69731;SHT31;56996;48.138;11.538;2023-05-10T07:09:47;15.42;75.21
69731;SHT31;56996;48.138;11.538;2023-05-10T07:12:15;15.50;74.78
69731;SHT31;56996;48.138;11.538;2023-05-10T07:14:42;15.63;74.41
69731;SHT31;56996;48.138;11.538;2023-05-10T07:17:08;15.76;73.31
69731;SHT31;56996;48.138;11.538;2023-05-10T07:19:36;15.96;72.73
69731;SHT31;56996;48.138;11.538;2023-05-10T07:22:03;16.20;71.90
69731;SHT31;56996;48.138;11.538;2023-05-10T07:24:29;16.42;70.40
69731;SHT31;56996;48.138;11.538;2023-05-10T07:26:57;16.47;70.03
69731;SHT31;56996;48.138;11.538;2023-05-10T07:29:24;16.54;69.30
69731;SHT31;56996;48.138;11.538;2023-05-10T07:31:51;16.60;69.74
69731;SHT31;56996;48.138;11.538;2023-05-10T07:34:18;16.80;69.52
69731;SHT31;56996;48.138;11.538;2023-05-10T07:36:45;17.05;68.74
69731;SHT31;56996;48.138;11.538;2023-05-10T07:39:11;17.29;67.81
69731;SHT31;56996;48.138;11.538;2023-05-10T07:41:49;17.69;67.10
69731;SHT31;56996;48.138;11.538;2023-05-10T07:44:16;17.92;66.38
69731;SHT31;56996;48.138;11.538;2023-05-10T07:46:46;18.20;64.66
69731;SHT31;56996;48.138;11.538;2023-05-10T07:49:13;18.61;63.70
69731;SHT31;56996;48.138;11.538;2023-05-10T07:54:54;19.57;60.27
69731;SHT31;56996;48.138;11.538;2023-05-10T07:57:23;19.81;58.79
69731;SHT31;56996;48.138;11.538;2023-05-10T07:59:50;20.34;58.30
69731;SHT31;56996;48.138;11.538;2023-05-10T08:02:17;20.93;57.34
69731;SHT31;56996;48.138;11.538;2023-05-10T08:04:43;21.42;56.93
69731;SHT31;56996;48.138;11.538;2023-05-10T08:07:10;21.86;55.29
69731;SHT31;56996;48.138;11.538;2023-05-10T08:09:37;21.88;54.65
69731;SHT31;56996;48.138;11.538;2023-05-10T08:18:00;20.56;53.28
69731;SHT31;56996;48.138;11.538;2023-05-10T08:20:27;20.31;53.93
69731;SHT31;56996;48.138;11.538;2023-05-10T08:25:23;20.21;53.51
69731;SHT31;56996;48.138;11.538;2023-05-10T08:30:22;19.55;53.56
69731;SHT31;56996;48.138;11.538;2023-05-10T08:32:52;18.82;55.03
69731;SHT31;56996;48.138;11.538;2023-05-10T08:35:19;18.45;56.26
69731;SHT31;56996;48.138;11.538;2023-05-10T08:37:46;18.28;57.16
69731;SHT31;56996;48.138;11.538;2023-05-10T08:49:27;17.94;59.00
69731;SHT31;56996;48.138;11.538;2023-05-10T08:51:57;17.78;59.53
69731;SHT31;56996;48.138;11.538;2023-05-10T08:54:31;17.66;60.12
69731;SHT31;56996;48.138;11.538;2023-05-10T08:56:59;17.61;60.34
69731;SHT31;56996;48.138;11.538;2023-05-10T08:59:27;17.54;60.78
69731;SHT31;56996;48.138;11.538;2023-05-10T09:01:53;17.46;61.27
69731;SHT31;56996;48.138;11.538;2023-05-10T09:04:24;17.40;61.48
69731;SHT31;56996;48.138;11.538;2023-05-10T09:06:51;17.41;61.47
69731;SHT31;56996;48.138;11.538;2023-05-10T09:09:18;17.68;60.91
69731;SHT31;56996;48.138;11.538;2023-05-10T09:11:47;19.00;58.84
69731;SHT31;56996;48.138;11.538;2023-05-10T09:14:14;20.82;55.21
69731;SHT31;56996;48.138;11.538;2023-05-10T09:16:42;22.40;51.81
69731;SHT31;56996;48.138;11.538;2023-05-10T09:19:09;23.45;49.16
69731;SHT31;56996;48.138;11.538;2023-05-10T09:21:36;23.07;48.14
69731;SHT31;56996;48.138;11.538;2023-05-10T09:24:07;22.38;48.40
69731;SHT31;56996;48.138;11.538;2023-05-10T09:26:35;21.94;49.70
69731;SHT31;56996;48.138;11.538;2023-05-10T09:29:13;21.67;50.30
69731;SHT31;56996;48.138;11.538;2023-05-10T09:31:43;21.43;49.52
69731;SHT31;56996;48.138;11.538;2023-05-10T09:34:18;21.03;49.61
69731;SHT31;56996;48.138;11.538;2023-05-10T09:36:55;21.00;50.65
69731;SHT31;56996;48.138;11.538;2023-05-10T09:39:32;21.06;50.96
69731;SHT31;56996;48.138;11.538;2023-05-10T09:42:04;21.16;50.59
69731;SHT31;56996;48.138;11.538;2023-05-10T09:44:33;21.18;50.43
69731;SHT31;56996;48.138;11.538;2023-05-10T09:47:01;21.21;50.39
69731;SHT31;56996;48.138;11.538;2023-05-10T09:49:28;21.25;50.22
69731;SHT31;56996;48.138;11.538;2023-05-10T09:51:59;21.36;49.93
69731;SHT31;56996;48.138;11.538;2023-05-10T09:54:33;21.48;49.38
69731;SHT31;56996;48.138;11.538;2023-05-10T09:57:01;21.59;49.31
69731;SHT31;56996;48.138;11.538;2023-05-10T09:59:28;21.67;48.68
69731;SHT31;56996;48.138;11.538;2023-05-10T10:01:57;21.46;48.62
69731;SHT31;56996;48.138;11.538;2023-05-10T10:04:26;21.19;49.16
69731;SHT31;56996;48.138;11.538;2023-05-10T10:07:00;21.09;49.37
69731;SHT31;56996;48.138;11.538;2023-05-10T10:09:31;21.01;49.71
69731;SHT31;56996;48.138;11.538;2023-05-10T10:12:00;21.08;49.66
69731;SHT31;56996;48.138;11.538;2023-05-10T10:14:28;20.94;49.26
69731;SHT31;56996;48.138;11.538;2023-05-10T10:16:55;20.99;49.89
69731;SHT31;56996;48.138;11.538;2023-05-10T10:19:34;21.30;49.11
69731;SHT31;56996;48.138;11.538;2023-05-10T10:22:02;21.43;48.84
69731;SHT31;56996;48.138;11.538;2023-05-10T10:24:29;21.33;48.41
69731;SHT31;56996;48.138;11.538;2023-05-10T10:26:57;21.29;48.64
69731;SHT31;56996;48.138;11.538;2023-05-10T10:29:58;21.20;48.28
69731;SHT31;56996;48.138;11.538;2023-05-10T10:35:58;21.05;49.12
69731;SHT31;56996;48.138;11.538;2023-05-10T10:38:35;21.46;48.70
69731;SHT31;56996;48.138;11.538;2023-05-10T10:52:25;21.15;46.39
69731;SHT31;56996;48.138;11.538;2023-05-10T11:03:12;19.95;52.39
69731;SHT31;56996;48.138;11.538;2023-05-10T11:05:41;19.68;53.58
69731;SHT31;56996;48.138;11.538;2023-05-10T11:08:14;19.65;54.66
69731;SHT31;56996;48.138;11.538;2023-05-10T11:13:33;19.77;54.30
69731;SHT31;56996;48.138;11.538;2023-05-10T11:16:12;19.65;55.22
69731;SHT31;56996;48.138;11.538;2023-05-10T11:18:55;19.65;56.76
69731;SHT31;56996;48.138;11.538;2023-05-10T11:21:30;19.47;57.34
69731;SHT31;56996;48.138;11.538;2023-05-10T11:23:59;19.22;57.59
69731;SHT31;56996;48.138;11.538;2023-05-10T11:26:33;19.05;58.17
69731;SHT31;56996;48.138;11.538;2023-05-10T11:29:01;18.78;58.74
69731;SHT31;56996;48.138;11.538;2023-05-10T11:31:29;18.51;59.81
69731;SHT31;56996;48.138;11.538;2023-05-10T11:33:57;18.26;59.61
69731;SHT31;56996;48.138;11.538;2023-05-10T11:36:27;18.00;60.30
69731;SHT31;56996;48.138;11.538;2023-05-10T11:38:56;17.63;60.59
69731;SHT31;56996;48.138;11.538;2023-05-10T11:41:23;17.46;61.59
69731;SHT31;56996;48.138;11.538;2023-05-10T11:43:54;17.47;62.19
69731;SHT31;56996;48.138;11.538;2023-05-10T11:46:23;17.39;62.69
69731;SHT31;56996;48.138;11.538;2023-05-10T11:48:53;17.38;63.13
69731;SHT31;56996;48.138;11.538;2023-05-10T11:51:26;17.30;63.41
69731;SHT31;56996;48.138;11.538;2023-05-10T11:53:55;17.05;63.81
69731;SHT31;56996;48.138;11.538;2023-05-10T11:56:23;16.98;63.88
69731;SHT31;56996;48.138;11.538;2023-05-10T11:58:57;16.90;64.29
69731;SHT31;56996;48.138;11.538;2023-05-10T12:01:26;16.83;64.50
69731;SHT31;56996;48.138;11.538;2023-05-10T12:03:54;16.84;63.94
69731;SHT31;56996;48.138;11.538;2023-05-10T12:06:27;16.87;63.87
69731;SHT31;56996;48.138;11.538;2023-05-10T12:08:58;16.79;64.07
69731;SHT31;56996;48.138;11.538;2023-05-10T12:11:25;16.72;64.34
69731;SHT31;56996;48.138;11.538;2023-05-10T12:13:54;16.69;64.87
69731;SHT31;56996;48.138;11.538;2023-05-10T12:16:23;16.65;64.58
69731;SHT31;56996;48.138;11.538;2023-05-10T12:18:53;16.58;64.35
69731;SHT31;56996;48.138;11.538;2023-05-10T12:21:25;16.52;64.97
69731;SHT31;56996;48.138;11.538;2023-05-10T12:23:54;16.49;65.32
69731;SHT31;56996;48.138;11.538;2023-05-10T12:26:27;16.49;65.09
69731;SHT31;56996;48.138;11.538;2023-05-10T12:28:54;16.46;65.54
69731;SHT31;56996;48.138;11.538;2023-05-10T12:31:22;16.40;66.02
69731;SHT31;56996;48.138;11.538;2023-05-10T12:33:48;16.42;65.97
69731;SHT31;56996;48.138;11.538;2023-05-10T12:36:15;16.41;66.24
69731;SHT31;56996;48.138;11.538;2023-05-10T12:38:44;16.46;66.33
69731;SHT31;56996;48.138;11.538;2023-05-10T12:41:15;16.45;66.20
69731;SHT31;56996;48.138;11.538;2023-05-10T12:43:44;16.40;65.46
69731;SHT31;56996;48.138;11.538;2023-05-10T12:46:17;16.39;65.98
69731;SHT31;56996;48.138;11.538;2023-05-10T12:48:44;16.42;65.83
69731;SHT31;56996;48.138;11.538;2023-05-10T12:51:34;16.43;65.91
69731;SHT31;56996;48.138;11.538;2023-05-10T12:54:01;16.20;65.42
69731;SHT31;56996;48.138;11.538;2023-05-10T12:56:29;16.16;66.29
69731;SHT31;56996;48.138;11.538;2023-05-10T12:58:55;16.24;66.33
69731;SHT31;56996;48.138;11.538;2023-05-10T13:01:22;16.27;66.13
69731;SHT31;56996;48.138;11.538;2023-05-10T13:03:49;16.34;66.28
69731;SHT31;56996;48.138;11.538;2023-05-10T13:06:16;16.41;65.96
69731;SHT31;56996;48.138;11.538;2023-05-10T13:08:43;16.37;66.11
69731;SHT31;56996;48.138;11.538;2023-05-10T13:11:09;16.33;66.38
69731;SHT31;56996;48.138;11.538;2023-05-10T13:13:36;16.35;66.54
69731;SHT31;56996;48.138;11.538;2023-05-10T13:16:03;16.37;65.93
69731;SHT31;56996;48.138;11.538;2023-05-10T13:18:30;16.42;66.37
69731;SHT31;56996;48.138;11.538;2023-05-10T13:20:57;16.43;66.72
69731;SHT31;56996;48.138;11.538;2023-05-10T13:23:23;16.47;67.20
69731;SHT31;56996;48.138;11.538;2023-05-10T13:25:50;16.51;67.57
69731;SHT31;56996;48.138;11.538;2023-05-10T13:28:17;16.56;66.56
69731;SHT31;56996;48.138;11.538;2023-05-10T13:30:43;16.58;67.05
69731;SHT31;56996;48.138;11.538;2023-05-10T13:33:10;16.54;66.82
69731;SHT31;56996;48.138;11.538;2023-05-10T13:35:36;16.59;67.02
69731;SHT31;56996;48.138;11.538;2023-05-10T13:38:04;16.54;66.52
69731;SHT31;56996;48.138;11.538;2023-05-10T13:40:30;16.48;66.71
69731;SHT31;56996;48.138;11.538;2023-05-10T13:42:57;16.44;67.01
69731;SHT31;56996;48.138;11.538;2023-05-10T13:45:23;16.41;67.71
69731;SHT31;56996;48.138;11.538;2023-05-10T13:47:50;16.36;67.93
69731;SHT31;56996;48.138;11.538;2023-05-10T13:50:18;16.32;68.33
69731;SHT31;56996;48.138;11.538;2023-05-10T13:52:45;16.28;68.30
69731;SHT31;56996;48.138;11.538;2023-05-10T13:55:12;16.25;68.69
69731;SHT31;56996;48.138;11.538;2023-05-10T13:57:39;16.25;67.85
69731;SHT31;56996;48.138;11.538;2023-05-10T14:00:06;16.20;67.48
69731;SHT31;56996;48.138;11.538;2023-05-10T14:02:33;16.16;68.13
69731;SHT31;56996;48.138;11.538;2023-05-10T14:05:00;16.14;68.30
69731;SHT31;56996;48.138;11.538;2023-05-10T14:07:27;16.09;68.26
69731;SHT31;56996;48.138;11.538;2023-05-10T14:09:54;16.09;68.92
69731;SHT31;56996;48.138;11.538;2023-05-10T14:12:20;16.12;68.91
69731;SHT31;56996;48.138;11.538;2023-05-10T14:14:47;16.12;68.95
69731;SHT31;56996;48.138;11.538;2023-05-10T14:17:13;16.09;68.88
69731;SHT31;56996;48.138;11.538;2023-05-10T14:19:40;16.15;68.31
69731;SHT31;56996;48.138;11.538;2023-05-10T14:22:07;16.21;68.27
69731;SHT31;56996;48.138;11.538;2023-05-10T14:24:33;16.23;68.14
69731;SHT31;56996;48.138;11.538;2023-05-10T14:27:00;16.19;67.16
69731;SHT31;56996;48.138;11.538;2023-05-10T14:29:27;16.08;67.47
69731;SHT31;56996;48.138;11.538;2023-05-10T14:31:53;16.03;67.82
69731;SHT31;56996;48.138;11.538;2023-05-10T14:34:20;16.03;68.03
69731;SHT31;56996;48.138;11.538;2023-05-10T14:36:47;16.00;67.85
69731;SHT31;56996;48.138;11.538;2023-05-10T14:39:13;16.01;68.09
69731;SHT31;56996;48.138;11.538;2023-05-10T14:41:40;16.00;68.08
69731;SHT31;56996;48.138;11.538;2023-05-10T14:44:09;16.01;67.91
69731;SHT31;56996;48.138;11.538;2023-05-10T14:46:36;15.99;68.28
69731;SHT31;56996;48.138;11.538;2023-05-10T14:49:04;15.97;68.28
69731;SHT31;56996;48.138;11.538;2023-05-10T14:51:30;15.97;68.27
69731;SHT31;56996;48.138;11.538;2023-05-10T14:53:58;15.88;68.28
69731;SHT31;56996;48.138;11.538;2023-05-10T14:56:24;15.86;68.32
69731;SHT31;56996;48.138;11.538;2023-05-10T14:58:52;15.84;68.65
69731;SHT31;56996;48.138;11.538;2023-05-10T15:01:19;15.81;68.38
69731;SHT31;56996;48.138;11.538;2023-05-10T15:03:46;15.78;68.00
69731;SHT31;56996;48.138;11.538;2023-05-10T15:06:14;15.72;68.36
69731;SHT31;56996;48.138;11.538;2023-05-10T15:08:44;15.70;68.17
69731;SHT31;56996;48.138;11.538;2023-05-10T15:11:10;15.67;68.34
69731;SHT31;56996;48.138;11.538;2023-05-10T15:13:37;15.59;68.38
69731;SHT31;56996;48.138;11.538;2023-05-10T15:16:04;15.51;68.79
69731;SHT31;56996;48.138;11.538;2023-05-10T15:18:30;15.48;69.18
69731;SHT31;56996;48.138;11.538;2023-05-10T15:20:57;15.46;69.11
69731;SHT31;56996;48.138;11.538;2023-05-10T15:23:24;15.54;69.03
69731;SHT31;56996;48.138;11.538;2023-05-10T15:25:50;15.54;68.90
69731;SHT31;56996;48.138;11.538;2023-05-10T15:28:21;15.56;68.87
69731;SHT31;56996;48.138;11.538;2023-05-10T15:30:48;15.56;68.76
69731;SHT31;56996;48.138;11.538;2023-05-10T15:33:16;15.60;69.05
69731;SHT31;56996;48.138;11.538;2023-05-10T15:35:42;15.64;68.64
69731;SHT31;56996;48.138;11.538;2023-05-10T15:38:09;15.59;68.64
69731;SHT31;56996;48.138;11.538;2023-05-10T15:40:36;15.50;69.30
69731;SHT31;56996;48.138;11.538;2023-05-10T15:43:03;15.49;69.51
69731;SHT31;56996;48.138;11.538;2023-05-10T15:45:31;15.49;69.55
69731;SHT31;56996;48.138;11.538;2023-05-10T15:48:01;15.42;69.33
69731;SHT31;56996;48.138;11.538;2023-05-10T15:50:28;15.37;69.55
69731;SHT31;56996;48.138;11.538;2023-05-10T15:52:55;15.26;69.64
69731;SHT31;56996;48.138;11.538;2023-05-10T15:55:22;15.19;69.76
69731;SHT31;56996;48.138;11.538;2023-05-10T15:57:48;15.19;70.12
69731;SHT31;56996;48.138;11.538;2023-05-10T16:00:15;15.16;69.88
69731;SHT31;56996;48.138;11.538;2023-05-10T16:02:43;15.13;70.08
69731;SHT31;56996;48.138;11.538;2023-05-10T16:05:10;15.14;70.00
69731;SHT31;56996;48.138;11.538;2023-05-10T16:07:36;15.08;70.24
69731;SHT31;56996;48.138;11.538;2023-05-10T16:10:03;15.01;70.51
69731;SHT31;56996;48.138;11.538;2023-05-10T16:12:31;14.97;70.45
69731;SHT31;56996;48.138;11.538;2023-05-10T16:14:58;14.90;70.39
69731;SHT31;56996;48.138;11.538;2023-05-10T16:17:25;14.90;70.89
69731;SHT31;56996;48.138;11.538;2023-05-10T16:19:52;14.94;70.85
69731;SHT31;56996;48.138;11.538;2023-05-10T16:22:18;14.98;70.90
69731;SHT31;56996;48.138;11.538;2023-05-10T16:24:48;14.99;70.74
69731;SHT31;56996;48.138;11.538;2023-05-10T16:27:18;14.94;70.78
69731;SHT31;56996;48.138;11.538;2023-05-10T16:29:46;14.89;70.60